Time;durP1;ratioP1;P1;durP2;ratioP2;P2;SDS_P1;SDS_P2;PMS_P1;PMS_P2;Temp;Humidity;BMP_temperature;BMP_pressure;BME280_temperature;BME280_humidity;BME280_pressure;Samples;Min_cycle;Max_cycle;Signal;HPM_P1;HPM_P2
2023/08/28 08:58:21;;;;;;;3.08;2.33;;;;;;;;;;6355641;22;20125;-86
2023/08/28 09:00:48;;;;;;;2.30;2.10;;;;;;;;;;6340245;22;20010;-81
2023/08/28 09:03:14;;;;;;;2.35;2.17;;;;;;;;;;6341279;22;20474;-82
2023/08/28 09:05:41;;;;;;;2.90;2.58;;;;;;;;;;6324125;22;20011;-81
2023/08/28 09:08:07;;;;;;;2.50;2.30;;;;;;;;;;6309722;22;20053;-82
2023/08/28 09:10:33;;;;;;;2.95;2.42;;;;;;;;;;6310279;22;20004;-91
2023/08/28 09:12:58;;;;;;;2.88;2.60;;;;;;;;;;6309882;22;20025;-93
2023/08/28 09:15:24;;;;;;;2.60;2.38;;;;;;;;;;6310360;22;20070;-89
2023/08/28 09:17:51;;;;;;;2.35;2.15;;;;;;;;;;6308389;22;20017;-87
2023/08/28 09:20:17;;;;;;;2.30;2.10;;;;;;;;;;6310132;22;20004;-86
2023/08/28 09:22:47;;;;;;;2.85;2.20;;;;;;;;;;6308774;22;20171;-87
2023/08/28 09:25:13;;;;;;;4.03;2.20;;;;;;;;;;6311055;22;20311;-85
2023/08/28 09:27:41;;;;;;;2.85;2.58;;;;;;;;;;6309539;22;20060;-89
2023/08/28 09:30:08;;;;;;;2.38;2.17;;;;;;;;;;6310429;22;20007;-85
2023/08/28 09:32:33;;;;;;;2.97;2.28;;;;;;;;;;6310017;22;20502;-87
2023/08/28 09:34:59;;;;;;;2.30;2.15;;;;;;;;;;6308379;22;20035;-88
2023/08/28 09:37:27;;;;;;;2.83;2.30;;;;;;;;;;6309925;22;20031;-87
2023/08/28 09:39:56;;;;;;;2.03;1.92;;;;;;;;;;6309998;22;20330;-95
2023/08/28 09:42:24;;;;;;;1.90;1.80;;;;;;;;;;6309737;22;20094;-95
2023/08/28 09:44:49;;;;;;;2.35;2.15;;;;;;;;;;6309855;22;20075;-91
2023/08/28 09:47:21;;;;;;;2.60;2.40;;;;;;;;;;6312728;22;20003;-83
2023/08/28 09:49:48;;;;;;;4.85;3.75;;;;;;;;;;6311271;22;20004;-88
2023/08/28 09:52:14;;;;;;;2.30;2.10;;;;;;;;;;6311703;22;20002;-88
2023/08/28 09:54:43;;;;;;;2.42;2.22;;;;;;;;;;6344771;22;20018;-91
2023/08/28 09:57:15;;;;;;;2.58;2.28;;;;;;;;;;6315085;22;20011;-86
2023/08/28 09:59:45;;;;;;;2.45;2.25;;;;;;;;;;6314620;22;20006;-89
2023/08/28 10:02:20;;;;;;;2.80;2.60;;;;;;;;;;6343617;22;20415;-89
2023/08/28 10:04:47;;;;;;;2.92;2.72;;;;;;;;;;6341232;22;20409;-86
2023/08/28 10:07:14;;;;;;;3.28;2.63;;;;;;;;;;6341018;22;20429;-85
2023/08/28 10:09:43;;;;;;;2.60;2.40;;;;;;;;;;6340833;22;20014;-85
2023/08/28 10:12:11;;;;;;;3.92;3.13;;;;;;;;;;6313752;22;20184;-86
2023/08/28 10:14:37;;;;;;;4.30;3.25;;;;;;;;;;6340860;22;20103;-87
2023/08/28 10:17:04;;;;;;;3.05;2.70;;;;;;;;;;6340497;22;20375;-85
2023/08/28 10:19:46;;;;;;;2.80;2.45;;;;;;;;;;6340431;22;20001;-86
2023/08/28 10:22:12;;;;;;;2.55;2.35;;;;;;;;;;6340531;22;19995;-88
2023/08/28 10:24:40;;;;;;;3.95;2.50;;;;;;;;;;6340487;22;20003;-85
2023/08/28 10:27:07;;;;;;;2.60;2.40;;;;;;;;;;6341374;22;19994;-93
2023/08/28 10:29:34;;;;;;;2.50;2.30;;;;;;;;;;6313245;22;20329;-89
2023/08/28 10:32:01;;;;;;;2.50;2.30;;;;;;;;;;6340446;22;20463;-83
2023/08/28 10:34:28;;;;;;;2.17;2.05;;;;;;;;;;6340312;22;20030;-84
2023/08/28 10:36:54;;;;;;;2.75;2.53;;;;;;;;;;6340037;22;20045;-84
2023/08/28 10:39:20;;;;;;;2.20;2.10;;;;;;;;;;6340374;22;20009;-85
2023/08/28 10:41:47;;;;;;;2.75;2.55;;;;;;;;;;6313025;22;20041;-85
2023/08/28 10:44:13;;;;;;;2.70;2.50;;;;;;;;;;6340223;22;20431;-85
2023/08/28 10:46:40;;;;;;;2.75;2.55;;;;;;;;;;6340324;22;20037;-85
2023/08/28 10:49:06;;;;;;;2.83;2.50;;;;;;;;;;6340575;22;20006;-85
2023/08/28 10:51:36;;;;;;;2.90;2.60;;;;;;;;;;6340422;22;19999;-87
2023/08/28 10:54:07;;;;;;;3.03;2.60;;;;;;;;;;6307852;22;20007;-90
2023/08/28 10:56:34;;;;;;;3.10;2.60;;;;;;;;;;6307884;22;20007;-85
2023/08/28 10:59:24;;;;;;;3.45;2.60;;;;;;;;;;6309258;22;20086;-85
2023/08/28 11:01:57;;;;;;;2.67;2.47;;;;;;;;;;6309282;22;20019;-86
2023/08/28 11:04:31;;;;;;;5.68;5.18;;;;;;;;;;6307017;22;20007;-86
2023/08/28 11:06:57;;;;;;;3.63;3.20;;;;;;;;;;6308761;22;20059;-85
2023/08/28 11:09:28;;;;;;;3.45;2.88;;;;;;;;;;6309179;22;20003;-86
2023/08/28 11:12:00;;;;;;;3.10;2.85;;;;;;;;;;6308592;22;20303;-86
2023/08/28 11:14:38;;;;;;;5.55;3.92;;;;;;;;;;6308748;22;20010;-86
2023/08/28 11:17:11;;;;;;;4.45;4.05;;;;;;;;;;6308684;22;20422;-86
2023/08/28 11:19:52;;;;;;;4.03;2.85;;;;;;;;;;6308952;22;20440;-86
2023/08/28 11:22:31;;;;;;;3.70;2.88;;;;;;;;;;6308319;22;20014;-85
2023/08/28 11:24:57;;;;;;;4.65;3.08;;;;;;;;;;6308442;22;20038;-86
2023/08/28 11:27:35;;;;;;;3.33;3.10;;;;;;;;;;6309194;22;20003;-89
2023/08/28 11:30:05;;;;;;;3.33;3.00;;;;;;;;;;6307193;22;20006;-86
2023/08/28 11:32:32;;;;;;;2.97;2.78;;;;;;;;;;6306840;22;20003;-87
2023/08/28 11:34:59;;;;;;;3.40;3.10;;;;;;;;;;6306929;22;20429;-82
2023/08/28 11:37:29;;;;;;;3.30;3.00;;;;;;;;;;6308383;22;20327;-83
2023/08/28 11:39:55;;;;;;;2.90;2.70;;;;;;;;;;6308643;22;20422;-83
2023/08/28 11:42:20;;;;;;;2.70;2.50;;;;;;;;;;6308219;22;20009;-86
2023/08/28 11:44:48;;;;;;;3.28;2.95;;;;;;;;;;6317538;22;20034;-85
2023/08/28 11:47:14;;;;;;;2.70;2.50;;;;;;;;;;6308449;22;20027;-87
2023/08/28 16:42:23;;;;;;;5.05;2.40;;;;;;;;;;6331238;22;20480;-83
2023/08/28 16:44:48;;;;;;;3.90;2.50;;;;;;;;;;6340832;22;20056;-88
2023/08/28 16:47:15;;;;;;;4.78;2.40;;;;;;;;;;6339202;22;20023;-84
2023/08/28 16:49:40;;;;;;;3.28;2.70;;;;;;;;;;6332744;22;20410;-82
2023/08/28 16:52:06;;;;;;;6.13;3.28;;;;;;;;;;6308081;22;20076;-83
2023/08/28 16:54:31;;;;;;;5.32;2.85;;;;;;;;;;6308014;22;20060;-81
2023/08/28 16:56:57;;;;;;;5.38;2.80;;;;;;;;;;6307854;22;20027;-85
2023/08/28 16:59:22;;;;;;;4.40;2.80;;;;;;;;;;6306159;22;20330;-84
2023/08/28 17:01:48;;;;;;;3.17;2.33;;;;;;;;;;6308011;22;20083;-87
2023/08/28 17:04:14;;;;;;;4.70;2.75;;;;;;;;;;6307761;22;20037;-84
2023/08/28 17:06:39;;;;;;;5.30;3.10;;;;;;;;;;6307825;22;20007;-82
2023/08/28 17:09:05;;;;;;;5.60;3.05;;;;;;;;;;6307719;22;20010;-87
2023/08/28 17:11:31;;;;;;;5.07;2.45;;;;;;;;;;6307818;22;20105;-85
2023/08/28 17:13:57;;;;;;;4.50;2.90;;;;;;;;;;6306248;22;20038;-91
2023/08/28 17:16:23;;;;;;;4.03;2.67;;;;;;;;;;6306690;22;20307;-85
2023/08/28 17:18:50;;;;;;;5.97;3.35;;;;;;;;;;6307754;22;20030;-86
2023/08/28 17:21:16;;;;;;;3.10;2.80;;;;;;;;;;6309445;22;20021;-87
2023/08/28 17:23:41;;;;;;;3.22;2.65;;;;;;;;;;6310136;22;20003;-89
2023/08/28 17:26:07;;;;;;;3.67;2.75;;;;;;;;;;6309776;22;20333;-87
2023/08/28 17:28:33;;;;;;;5.28;3.20;;;;;;;;;;6309846;22;20007;-87
2023/08/28 17:31:02;;;;;;;5.68;3.05;;;;;;;;;;6308213;22;20426;-87
2023/08/28 17:33:29;;;;;;;5.10;2.78;;;;;;;;;;6309957;22;20027;-84
2023/08/28 17:35:54;;;;;;;4.10;2.40;;;;;;;;;;6309979;22;19999;-87
2023/08/28 17:38:20;;;;;;;2.85;2.40;;;;;;;;;;6309976;22;20003;-86
2023/08/28 17:40:48;;;;;;;3.80;2.45;;;;;;;;;;6309524;22;20003;-86
2023/08/28 17:43:14;;;;;;;3.42;2.83;;;;;;;;;;6317841;22;20049;-84
2023/08/28 17:45:40;;;;;;;2.90;2.35;;;;;;;;;;6340706;22;19999;-84
2023/08/28 17:48:06;;;;;;;2.75;2.30;;;;;;;;;;6341013;22;20051;-84
2023/08/28 17:50:31;;;;;;;3.47;2.50;;;;;;;;;;6340940;22;20033;-82
2023/08/28 17:52:57;;;;;;;3.25;2.30;;;;;;;;;;6341120;22;19998;-85
2023/08/28 17:55:22;;;;;;;2.67;2.20;;;;;;;;;;6340631;22;20006;-84
2023/08/28 17:57:48;;;;;;;3.33;2.00;;;;;;;;;;6340826;22;20259;-83
2023/08/28 18:00:14;;;;;;;5.28;2.17;;;;;;;;;;6340732;22;20317;-84
2023/08/28 18:02:40;;;;;;;3.30;2.45;;;;;;;;;;6340812;22;20020;-84
2023/08/28 18:05:06;;;;;;;2.85;2.33;;;;;;;;;;6313159;22;20007;-84
2023/08/28 18:07:31;;;;;;;2.80;2.40;;;;;;;;;;6313128;22;20009;-84
2023/08/28 18:09:57;;;;;;;2.70;2.40;;;;;;;;;;6311818;22;20329;-85
2023/08/28 18:12:23;;;;;;;3.05;2.45;;;;;;;;;;6340085;22;20472;-85
2023/08/28 18:14:48;;;;;;;3.55;3.25;;;;;;;;;;6340184;22;20003;-86
2023/08/28 18:17:16;;;;;;;3.85;2.60;;;;;;;;;;6341108;22;20009;-86
2023/08/28 18:19:42;;;;;;;2.90;2.70;;;;;;;;;;6340729;22;20003;-86
2023/08/28 18:22:07;;;;;;;5.97;3.40;;;;;;;;;;6312726;22;20003;-88
2023/08/28 18:24:33;;;;;;;3.00;2.30;;;;;;;;;;6340918;22;20074;-88
2023/08/28 18:26:58;;;;;;;4.78;2.40;;;;;;;;;;6341118;22;20337;-89
2023/08/28 18:29:24;;;;;;;5.20;2.72;;;;;;;;;;6313098;22;20341;-87
2023/08/28 18:31:49;;;;;;;3.03;2.70;;;;;;;;;;6340686;22;20006;-87
2023/08/28 18:34:16;;;;;;;5.13;3.00;;;;;;;;;;6313010;22;20056;-90
2023/08/28 18:36:41;;;;;;;4.10;2.70;;;;;;;;;;6313605;22;20045;-88
2023/08/28 18:39:08;;;;;;;3.00;2.70;;;;;;;;;;6340573;22;20371;-87
2023/08/28 18:41:35;;;;;;;3.28;2.33;;;;;;;;;;6340155;22;20069;-86
2023/08/28 18:44:01;;;;;;;2.70;2.47;;;;;;;;;;6340206;22;20017;-87
2023/08/28 18:46:26;;;;;;;4.03;2.80;;;;;;;;;;6340461;22;20030;-87
2023/08/28 18:48:52;;;;;;;2.85;2.33;;;;;;;;;;6312260;22;20010;-85
2023/08/28 18:51:17;;;;;;;2.80;2.00;;;;;;;;;;6340095;22;20317;-85
2023/08/28 18:53:43;;;;;;;2.30;2.10;;;;;;;;;;6340126;22;19998;-86
2023/08/28 18:56:08;;;;;;;3.28;2.15;;;;;;;;;;6312295;22;20011;-85
2023/08/28 18:58:34;;;;;;;2.88;2.40;;;;;;;;;;6312693;22;20007;-83
2023/08/28 19:01:00;;;;;;;3.22;2.50;;;;;;;;;;6340166;22;20003;-84
2023/08/28 19:03:28;;;;;;;3.83;2.38;;;;;;;;;;6340139;22;20010;-83
2023/08/28 19:05:53;;;;;;;3.65;2.40;;;;;;;;;;6340160;22;20002;-83
2023/08/28 19:08:19;;;;;;;2.60;2.40;;;;;;;;;;6339858;22;20030;-84
2023/08/28 19:10:44;;;;;;;3.30;2.55;;;;;;;;;;6339878;22;19999;-86
2023/08/28 19:13:10;;;;;;;3.17;2.40;;;;;;;;;;6340130;22;20003;-85
2023/08/28 19:15:35;;;;;;;2.67;2.00;;;;;;;;;;6340250;22;19998;-85
2023/08/28 19:18:01;;;;;;;2.35;2.15;;;;;;;;;;6339884;22;20085;-86
2023/08/28 19:20:27;;;;;;;3.50;2.28;;;;;;;;;;6339721;22;20100;-85
2023/08/28 19:22:52;;;;;;;3.70;2.38;;;;;;;;;;6339572;22;19998;-85
2023/08/28 19:25:18;;;;;;;4.70;2.50;;;;;;;;;;6339716;22;20010;-85
2023/08/28 19:27:43;;;;;;;2.20;2.00;;;;;;;;;;6339755;22;20127;-85
2023/08/28 19:30:10;;;;;;;3.30;1.98;;;;;;;;;;6339659;22;20003;-85
2023/08/28 19:32:40;;;;;;;2.42;2.10;;;;;;;;;;6339834;22;20018;-84
2023/08/28 19:35:12;;;;;;;5.05;2.65;;;;;;;;;;6339616;22;19999;-85
2023/08/28 19:37:38;;;;;;;2.40;2.20;;;;;;;;;;6339750;22;20078;-86
2023/08/28 19:40:05;;;;;;;2.83;2.17;;;;;;;;;;6339680;22;20022;-85
2023/08/28 19:42:31;;;;;;;3.00;2.08;;;;;;;;;;6340386;22;20064;-85
2023/08/28 19:44:57;;;;;;;2.85;2.30;;;;;;;;;;6339313;22;20426;-85
2023/08/28 19:47:25;;;;;;;3.10;2.10;;;;;;;;;;6339901;22;20009;-85
2023/08/28 19:49:51;;;;;;;2.13;2.00;;;;;;;;;;6339627;22;20001;-85
2023/08/28 19:52:19;;;;;;;3.08;2.10;;;;;;;;;;6311875;22;20027;-85
2023/08/28 19:54:48;;;;;;;3.03;2.00;;;;;;;;;;6312159;22;20056;-86
2023/08/28 19:57:15;;;;;;;2.90;1.92;;;;;;;;;;6311772;22;20079;-86
2023/08/28 19:59:43;;;;;;;2.42;2.22;;;;;;;;;;6311822;22;20006;-86
2023/08/28 20:02:13;;;;;;;2.85;2.47;;;;;;;;;;6339531;22;20448;-86
2023/08/28 20:04:39;;;;;;;4.22;3.35;;;;;;;;;;6339566;22;20002;-85
2023/08/28 20:07:06;;;;;;;3.72;2.95;;;;;;;;;;6312189;22;20017;-85
2023/08/28 20:09:32;;;;;;;4.53;2.60;;;;;;;;;;6311612;22;20006;-85
2023/08/28 20:12:00;;;;;;;4.20;2.85;;;;;;;;;;6339439;22;20332;-85
2023/08/28 20:14:27;;;;;;;5.20;2.45;;;;;;;;;;6339557;22;20052;-85
2023/08/28 20:16:53;;;;;;;2.55;2.20;;;;;;;;;;6339369;22;20026;-84
2023/08/28 20:19:18;;;;;;;5.35;2.40;;;;;;;;;;6311660;22;20451;-85
2023/08/28 20:21:47;;;;;;;3.65;2.40;;;;;;;;;;6311869;22;20333;-85
2023/08/28 20:24:13;;;;;;;3.77;2.57;;;;;;;;;;6339501;22;20005;-84
2023/08/28 20:26:38;;;;;;;3.45;2.60;;;;;;;;;;6339616;22;20026;-84
2023/08/28 20:29:04;;;;;;;3.28;2.30;;;;;;;;;;6339369;22;20047;-86
2023/08/28 20:31:29;;;;;;;4.30;2.00;;;;;;;;;;6339348;22;20003;-81
2023/08/28 20:33:55;;;;;;;3.85;2.40;;;;;;;;;;6339343;22;20002;-81
2023/08/28 20:36:20;;;;;;;3.45;2.53;;;;;;;;;;6339328;22;20003;-81
2023/08/28 20:38:46;;;;;;;4.80;2.40;;;;;;;;;;6339419;22;20008;-81
2023/08/28 20:41:12;;;;;;;4.97;2.28;;;;;;;;;;6339358;22;20002;-81
2023/08/28 20:43:38;;;;;;;2.60;2.13;;;;;;;;;;6339369;22;20033;-81
2023/08/28 20:46:05;;;;;;;4.75;2.00;;;;;;;;;;6339256;22;20474;-81
2023/08/28 20:48:34;;;;;;;3.28;2.28;;;;;;;;;;6311642;22;20003;-81
2023/08/28 20:51:01;;;;;;;3.40;1.95;;;;;;;;;;6339086;22;20030;-81
2023/08/28 20:53:27;;;;;;;3.58;2.65;;;;;;;;;;6339376;22;20007;-81
2023/08/28 20:55:53;;;;;;;3.15;2.40;;;;;;;;;;6338855;22;20084;-81
2023/08/28 20:58:19;;;;;;;3.85;2.80;;;;;;;;;;6340806;22;20006;-81
2023/08/28 21:00:45;;;;;;;2.33;2.10;;;;;;;;;;6340978;22;20010;-81
2023/08/28 21:03:10;;;;;;;4.47;2.28;;;;;;;;;;6341069;22;19999;-81
2023/08/28 21:05:37;;;;;;;4.18;2.42;;;;;;;;;;6341223;22;20002;-81
2023/08/28 21:08:02;;;;;;;3.22;2.08;;;;;;;;;;6341137;22;20034;-81
2023/08/28 21:10:28;;;;;;;2.63;2.15;;;;;;;;;;6340716;22;19998;-80
2023/08/28 21:12:53;;;;;;;2.75;1.92;;;;;;;;;;6341124;22;20006;-81
2023/08/28 21:15:20;;;;;;;2.92;2.28;;;;;;;;;;6340880;22;20034;-81
2023/08/28 21:17:46;;;;;;;2.50;1.90;;;;;;;;;;6340765;22;20013;-80
2023/08/28 21:20:11;;;;;;;4.28;2.20;;;;;;;;;;6340872;22;20034;-81
2023/08/28 21:22:37;;;;;;;3.15;2.22;;;;;;;;;;6313090;22;19999;-81
2023/08/28 21:25:03;;;;;;;2.85;2.15;;;;;;;;;;6340837;22;20007;-81
2023/08/28 21:27:28;;;;;;;3.83;2.00;;;;;;;;;;6340869;22;20003;-81
2023/08/28 21:29:53;;;;;;;3.20;2.15;;;;;;;;;;6340736;22;19998;-81
2023/08/28 21:32:19;;;;;;;2.80;1.70;;;;;;;;;;6340547;22;20007;-81
2023/08/28 21:34:44;;;;;;;2.72;1.75;;;;;;;;;;6341017;22;20368;-81
2023/08/28 21:37:10;;;;;;;3.63;1.77;;;;;;;;;;6341117;22;19995;-82
2023/08/28 21:39:35;;;;;;;3.33;1.60;;;;;;;;;;6313240;22;20451;-82
2023/08/28 21:42:01;;;;;;;1.45;1.35;;;;;;;;;;6340626;22;20429;-82
2023/08/28 21:44:26;;;;;;;2.22;1.40;;;;;;;;;;6340707;22;20014;-81
2023/08/28 21:46:52;;;;;;;1.50;1.27;;;;;;;;;;6340321;22;20009;-81
2023/08/28 21:49:17;;;;;;;3.17;1.05;;;;;;;;;;6340803;22;20381;-81
2023/08/28 21:51:43;;;;;;;1.08;1.05;;;;;;;;;;6340720;22;20006;-82
2023/08/28 21:54:08;;;;;;;2.67;1.10;;;;;;;;;;6340763;22;20074;-81
2023/08/28 21:56:34;;;;;;;1.10;1.00;;;;;;;;;;6340927;22;20003;-82
